Time;durP1;ratioP1;P1;durP2;ratioP2;P2;SDS_P1;SDS_P2;PMS_P1;PMS_P2;Temp;Humidity;BMP_temperature;BMP_pressure;BME280_temperature;BME280_humidity;BME280_pressure;Samples;Min_cycle;Max_cycle;Signal;HPM_P1;HPM_P2
2022/02/14 00:00:56;;;;;;;;;17.75;14.75;;;;;-1.76;100.00;102291.37;3724749;37;20722;-61
2022/02/14 00:03:38;;;;;;;;;20.75;18.75;;;;;-1.83;100.00;102281.94;3724639;38;20708;-62
2022/02/14 00:06:06;;;;;;;;;15.25;14.50;;;;;-1.85;100.00;102288.22;3725065;37;20760;-62
2022/02/14 00:08:34;;;;;;;;;19.00;18.00;;;;;-1.90;100.00;102279.59;3725205;38;20732;-63
2022/02/14 00:11:03;;;;;;;;;20.00;17.00;;;;;-1.94;100.00;102278.00;3725153;38;21030;-62
2022/02/14 00:13:34;;;;;;;;;20.75;17.25;;;;;-2.01;100.00;102280.87;3725164;38;20722;-62
2022/02/14 00:16:04;;;;;;;;;17.25;17.25;;;;;-1.97;100.00;102281.63;3725139;38;20737;-63
2022/02/14 00:18:32;;;;;;;;;18.25;16.00;;;;;-2.02;100.00;102265.88;3725527;38;20910;-60
2022/02/14 00:21:06;;;;;;;;;17.00;17.00;;;;;-1.98;100.00;102277.25;3725694;37;20688;-62
2022/02/14 00:23:34;;;;;;;;;17.00;16.00;;;;;-2.00;100.00;102273.78;3725413;37;20721;-63
2022/02/14 00:26:01;;;;;;;;;17.25;14.00;;;;;-2.05;100.00;102267.81;3725206;37;20765;-63
2022/02/14 00:28:30;;;;;;;;;19.50;17.50;;;;;-2.04;100.00;102274.84;3725161;38;20708;-62
2022/02/14 00:31:00;;;;;;;;;14.00;12.50;;;;;-2.01;100.00;102264.09;3725229;37;20718;-63
2022/02/14 00:33:28;;;;;;;;;11.75;10.50;;;;;-2.03;100.00;102252.69;3724826;38;20715;-64
2022/02/14 00:35:58;;;;;;;;;16.00;13.00;;;;;-2.03;100.00;102252.69;3725116;38;20685;-62
2022/02/14 00:38:26;;;;;;;;;13.75;12.00;;;;;-1.97;100.00;102251.56;3724856;38;20618;-63
2022/02/14 00:40:54;;;;;;;;;17.25;15.00;;;;;-1.95;100.00;102250.59;3724960;38;20676;-63
2022/02/14 00:43:21;;;;;;;;;17.00;15.25;;;;;-1.97;100.00;102247.13;3725252;37;20687;-62
2022/02/14 00:45:51;;;;;;;;;13.75;13.75;;;;;-2.09;100.00;102218.47;3724733;38;20626;-63
2022/02/14 00:48:20;;;;;;;;;19.50;15.75;;;;;-1.97;100.00;102231.22;3725094;37;20705;-61
2022/02/14 00:50:48;;;;;;;;;19.25;17.75;;;;;-2.01;100.00;102233.13;3724685;38;20652;-62
2022/02/14 00:53:19;;;;;;;;;15.75;15.75;;;;;-2.01;100.00;102226.97;3725112;38;20852;-61
2022/02/14 00:55:48;;;;;;;;;13.50;13.25;;;;;-2.06;100.00;102231.59;3725056;37;20683;-63
2022/02/14 00:58:16;;;;;;;;;16.25;16.00;;;;;-2.10;100.00;102224.72;3724701;38;20795;-63
2022/02/14 01:00:43;;;;;;;;;18.75;17.25;;;;;-2.09;100.00;102231.75;3724217;38;20562;-61
2022/02/14 01:03:13;;;;;;;;;18.50;17.50;;;;;-2.09;100.00;102229.09;3724454;38;20647;-60
2022/02/14 01:05:42;;;;;;;;;17.25;14.75;;;;;-2.13;100.00;102224.81;3724943;37;20679;-59
2022/02/14 01:08:11;;;;;;;;;19.25;19.25;;;;;-2.20;100.00;102228.66;3724951;38;20676;-60
2022/02/14 01:10:39;;;;;;;;;22.25;21.00;;;;;-2.27;100.00;102222.72;3724621;38;20549;-60
2022/02/14 01:13:08;;;;;;;;;23.00;21.75;;;;;-2.33;100.00;102215.00;3724964;37;20672;-60
2022/02/14 01:15:36;;;;;;;;;21.25;18.25;;;;;-2.46;100.00;102209.31;3724217;38;20858;-59
2022/02/14 01:18:03;;;;;;;;;21.50;19.75;;;;;-2.55;100.00;102214.97;3725176;37;20555;-61
2022/02/14 01:20:32;;;;;;;;;21.50;19.75;;;;;-2.63;100.00;102213.56;3725158;38;20568;-60
2022/02/14 01:23:00;;;;;;;;;22.25;22.00;;;;;-2.82;100.00;102195.72;3725001;38;20638;-60
2022/02/14 01:25:28;;;;;;;;;19.25;18.50;;;;;-3.08;100.00;102187.88;3725120;37;20654;-59
2022/02/14 01:27:57;;;;;;;;;26.75;26.00;;;;;-3.10;100.00;102203.81;3725162;38;20610;-60
2022/02/14 01:30:24;;;;;;;;;21.00;20.25;;;;;-3.16;100.00;102198.78;3725111;38;20589;-60
2022/02/14 01:32:53;;;;;;;;;25.50;23.50;;;;;-3.31;100.00;102185.22;3724798;38;20584;-59
2022/02/14 01:35:20;;;;;;;;;25.00;22.75;;;;;-3.29;100.00;102196.63;3725044;38;20602;-59
2022/02/14 01:37:48;;;;;;;;;24.50;21.75;;;;;-3.28;100.00;102196.56;3725012;37;20615;-59
2022/02/14 01:40:20;;;;;;;;;30.75;28.00;;;;;-3.27;100.00;102194.78;3724785;38;20611;-58
2022/02/14 01:42:48;;;;;;;;;24.75;24.50;;;;;-3.34;100.00;102188.84;3725196;37;20633;-59
2022/02/14 01:45:16;;;;;;;;;28.25;25.00;;;;;-3.36;100.00;102185.38;3725170;38;20558;-59
2022/02/14 01:47:46;;;;;;;;;30.50;27.00;;;;;-3.33;100.00;102190.56;3725108;37;20625;-60
2022/02/14 01:50:15;;;;;;;;;22.00;17.00;;;;;-3.42;100.00;102177.66;3725178;38;20735;-59
2022/02/14 01:52:44;;;;;;;;;28.00;26.25;;;;;-3.40;100.00;102174.03;3725187;37;20758;-59
2022/02/14 01:55:15;;;;;;;;;33.00;27.75;;;;;-3.31;100.00;102174.62;3725155;38;20605;-59
2022/02/14 01:57:43;;;;;;;;;32.50;30.75;;;;;-3.38;100.00;102171.34;3725209;37;20608;-60
2022/02/14 02:00:15;;;;;;;;;34.50;31.25;;;;;-3.39;100.00;102174.91;3724906;38;20481;-60
2022/02/14 02:02:43;;;;;;;;;31.00;28.50;;;;;-3.45;100.00;102175.97;3725536;37;20607;-60
2022/02/14 02:05:12;;;;;;;;;28.25;27.25;;;;;-3.53;100.00;102178.03;3726944;37;20507;-60
2022/02/14 02:07:43;;;;;;;;;50.00;42.25;;;;;-3.60;100.00;102175.66;3725075;37;20606;-62
2022/02/14 02:10:13;;;;;;;;;39.75;37.50;;;;;-3.60;100.00;102167.72;3725432;37;20858;-60
2022/02/14 02:12:53;;;;;;;;;48.50;41.50;;;;;-3.61;100.00;102165.97;3724906;37;20647;-60
2022/02/14 02:15:21;;;;;;;;;40.25;38.00;;;;;-3.63;100.00;102167.81;3725146;37;20660;-63
2022/02/14 02:17:49;;;;;;;;;40.75;39.25;;;;;-3.68;100.00;102162.72;3725135;38;20708;-63
2022/02/14 02:20:19;;;;;;;;;51.00;42.25;;;;;-3.66;100.00;102163.53;3724809;37;20809;-63
2022/02/14 02:22:49;;;;;;;;;38.00;35.50;;;;;-3.62;100.00;102158.97;3724814;38;20523;-63
2022/02/14 02:25:18;;;;;;;;;42.75;38.50;;;;;-3.65;100.00;102152.03;3725171;37;20595;-63
2022/02/14 02:27:46;;;;;;;;;36.25;33.00;;;;;-3.76;100.00;102152.41;3725018;37;20634;-62
2022/02/14 02:30:18;;;;;;;;;44.75;40.50;;;;;-3.73;100.00;102148.78;3725172;37;20822;-63
2022/02/14 02:32:48;;;;;;;;;38.75;33.25;;;;;-3.75;100.00;102147.97;3725143;37;20618;-63
2022/02/14 02:35:16;;;;;;;;;33.50;31.25;;;;;-3.70;100.00;102148.69;3724097;37;20558;-63
2022/02/14 02:37:44;;;;;;;;;35.50;32.50;;;;;-3.65;100.00;102145.88;3725035;37;20425;-63
2022/02/14 02:40:14;;;;;;;;;26.75;23.75;;;;;-3.53;100.00;102145.41;3725080;37;20562;-63
2022/02/14 02:42:42;;;;;;;;;22.50;18.50;;;;;-3.42;100.00;102143.25;3725123;38;20559;-63
2022/02/14 02:45:11;;;;;;;;;22.50;21.00;;;;;-3.38;100.00;102140.44;3724998;38;20533;-63
2022/02/14 02:47:39;;;;;;;;;17.75;17.50;;;;;-3.34;100.00;102143.84;3724589;37;20541;-64
2022/02/14 02:50:07;;;;;;;;;13.00;13.00;;;;;-3.25;100.00;102137.34;3725128;37;20461;-63
2022/02/14 02:52:36;;;;;;;;;13.50;13.00;;;;;-3.17;100.00;102144.09;3725065;38;20424;-63
2022/02/14 02:55:05;;;;;;;;;14.00;14.00;;;;;-3.09;100.00;102147.28;3725198;38;20465;-62
2022/02/14 02:57:33;;;;;;;;;13.75;12.25;;;;;-3.02;100.00;102139.97;3724692;38;20528;-63
2022/02/14 03:00:02;;;;;;;;;5.25;4.50;;;;;-3.05;100.00;102140.94;3725169;38;20392;-63
2022/02/14 03:02:31;;;;;;;;;13.75;10.75;;;;;-3.01;100.00;102145.22;3724926;37;20401;-63
2022/02/14 03:04:58;;;;;;;;;13.50;13.25;;;;;-3.03;100.00;102141.75;3725274;37;20522;-63
2022/02/14 03:07:27;;;;;;;;;16.50;14.00;;;;;-3.10;100.00;102132.31;3725240;37;20437;-63
2022/02/14 03:09:56;;;;;;;;;12.25;11.50;;;;;-3.02;100.00;102147.91;3725401;37;20523;-63
2022/02/14 03:12:31;;;;;;;;;10.25;10.00;;;;;-2.97;100.00;102142.44;3725359;37;20429;-64
2022/02/14 03:14:58;;;;;;;;;13.25;12.00;;;;;-2.91;100.00;102150.16;3725226;38;20497;-63
2022/02/14 03:17:26;;;;;;;;;11.00;11.00;;;;;-2.88;100.00;102142.97;3725465;37;20521;-63
2022/02/14 03:19:53;;;;;;;;;17.00;13.75;;;;;-2.86;100.00;102148.19;3725303;38;20504;-62
2022/02/14 03:22:21;;;;;;;;;14.25;13.00;;;;;-2.97;100.00;102134.50;3725316;37;20489;-63
2022/02/14 03:24:50;;;;;;;;;14.75;14.00;;;;;-2.88;100.00;102156.19;3725485;37;20519;-62
2022/02/14 03:27:18;;;;;;;;;15.00;14.00;;;;;-2.85;100.00;102155.22;3724972;37;20506;-62
2022/02/14 03:29:48;;;;;;;;;16.50;13.25;;;;;-2.87;100.00;102152.63;3725202;37;20502;-61
2022/02/14 03:32:17;;;;;;;;;14.00;12.25;;;;;-2.89;100.00;102145.66;3724972;38;20436;-61
2022/02/14 03:34:45;;;;;;;;;15.00;14.50;;;;;-2.87;100.00;102155.28;3724615;37;20361;-61
2022/02/14 03:37:13;;;;;;;;;16.50;14.25;;;;;-2.86;100.00;102157.00;3724928;38;20457;-61
2022/02/14 03:39:40;;;;;;;;;16.25;14.75;;;;;-2.88;100.00;102152.69;3725023;38;20470;-62
2022/02/14 03:42:08;;;;;;;;;10.00;9.00;;;;;-2.89;100.00;102143.88;3725112;38;20472;-61
2022/02/14 03:44:37;;;;;;;;;17.25;16.25;;;;;-2.90;100.00;102143.94;3725049;37;20471;-61
2022/02/14 03:47:04;;;;;;;;;18.25;14.50;;;;;-2.91;100.00;102143.06;3725198;37;20475;-61
2022/02/14 03:49:32;;;;;;;;;16.25;15.00;;;;;-2.91;100.00;102140.44;3725136;37;20336;-62
2022/02/14 03:52:02;;;;;;;;;13.75;13.75;;;;;-2.89;100.00;102143.03;3725248;38;20442;-61
2022/02/14 03:54:30;;;;;;;;;18.75;16.00;;;;;-2.86;100.00;102153.50;3725095;37;20474;-61
2022/02/14 03:56:59;;;;;;;;;13.25;12.50;;;;;-2.92;100.00;102138.69;3725363;38;20388;-62
2022/02/14 03:59:27;;;;;;;;;17.25;16.50;;;;;-2.89;100.00;102145.66;3724924;38;20434;-62
2022/02/14 04:01:55;;;;;;;;;16.00;16.00;;;;;-2.90;100.00;102147.44;3725356;37;20319;-62
2022/02/14 04:04:23;;;;;;;;;15.50;13.75;;;;;-2.95;100.00;102141.47;3725877;38;20357;-62
2022/02/14 04:06:50;;;;;;;;;16.75;15.00;;;;;-2.93;100.00;102138.75;3725711;37;20375;-61
2022/02/14 04:09:18;;;;;;;;;14.25;12.75;;;;;-2.88;100.00;102145.59;3725458;38;20507;-62
2022/02/14 04:11:45;;;;;;;;;20.00;18.75;;;;;-2.88;100.00;102140.31;3724977;38;20449;-62
2022/02/14 04:14:12;;;;;;;;;20.25;15.25;;;;;-2.90;100.00;102139.50;3725231;37;20420;-62
2022/02/14 04:16:40;;;;;;;;;14.50;14.50;;;;;-2.94;100.00;102137.03;3724838;37;20438;-62
2022/02/14 04:19:07;;;;;;;;;16.50;16.50;;;;;-2.91;100.00;102131.63;3724987;38;20370;-61
2022/02/14 04:21:36;;;;;;;;;16.00;16.00;;;;;-2.90;100.00;102133.34;3725075;37;20382;-62
2022/02/14 04:24:04;;;;;;;;;20.00;18.50;;;;;-2.92;100.00;102122.81;3725085;38;20393;-62
2022/02/14 04:26:37;;;;;;;;;19.75;19.00;;;;;-2.84;100.00;102125.16;3725072;37;20405;-63
2022/02/14 04:29:05;;;;;;;;;17.25;16.00;;;;;-2.84;100.00;102131.31;3725213;38;20384;-63
2022/02/14 04:31:39;;;;;;;;;18.00;18.00;;;;;-2.89;100.00;102130.63;3725175;37;20325;-63
2022/02/14 04:34:08;;;;;;;;;18.50;17.75;;;;;-2.89;100.00;102127.12;3725070;37;20301;-63
2022/02/14 04:36:35;;;;;;;;;34.50;29.75;;;;;-2.88;100.00;102136.78;3725440;37;21516;-64
2022/02/14 04:39:04;;;;;;;;;25.75;25.25;;;;;-2.91;100.00;102126.31;3725748;37;21369;-62
2022/02/14 04:41:32;;;;;;;;;27.50;25.25;;;;;-2.93;100.00;102139.63;3725094;37;20346;-62
2022/02/14 04:44:01;;;;;;;;;17.75;16.25;;;;;-2.90;100.00;102143.94;3724681;38;21363;-60
2022/02/14 04:46:31;;;;;;;;;18.50;17.25;;;;;-2.91;100.00;102132.47;3725048;37;20365;-61
2022/02/14 04:48:59;;;;;;;;;26.00;22.00;;;;;-2.90;100.00;102136.84;3724921;37;21378;-61
2022/02/14 04:51:27;;;;;;;;;20.25;18.25;;;;;-3.02;100.00;102126.72;3725006;37;21256;-61
2022/02/14 04:53:55;;;;;;;;;21.50;19.75;;;;;-2.97;100.00;102135.37;3725248;37;21356;-61
2022/02/14 04:56:25;;;;;;;;;19.00;18.50;;;;;-3.01;100.00;102137.25;3725437;37;21321;-61
2022/02/14 04:58:53;;;;;;;;;16.00;14.75;;;;;-3.01;100.00;102141.69;3725234;37;21349;-61
2022/02/14 05:01:22;;;;;;;;;20.00;17.25;;;;;-3.02;100.00;102142.63;3725256;38;21485;-62
2022/02/14 05:03:51;;;;;;;;;23.25;20.00;;;;;-3.05;100.00;102134.78;3725121;37;21366;-61
2022/02/14 05:06:19;;;;;;;;;24.50;21.50;;;;;-3.09;100.00;102138.47;3725238;38;21527;-62
2022/02/14 05:08:46;;;;;;;;;38.25;35.75;;;;;-3.25;100.00;102124.09;3725313;38;21335;-61
2022/02/14 05:11:14;;;;;;;;;25.50;22.75;;;;;-3.14;100.00;102140.47;3725350;38;21412;-62
2022/02/14 05:13:50;;;;;;;;;23.75;23.00;;;;;-3.16;100.00;102143.16;3725216;38;21332;-62
2022/02/14 05:16:23;;;;;;;;;26.00;23.50;;;;;-3.19;100.00;102145.06;3725187;38;21365;-62
2022/02/14 05:18:52;;;;;;;;;23.25;21.50;;;;;-3.20;100.00;102138.91;3725361;37;21492;-62
2022/02/14 05:21:19;;;;;;;;;31.50;28.25;;;;;-3.23;100.00;102136.38;3725158;38;21304;-61
2022/02/14 05:23:51;;;;;;;;;28.50;23.25;;;;;-3.30;100.00;102141.94;3724969;38;21437;-61
2022/02/14 05:26:19;;;;;;;;;25.00;23.50;;;;;-3.30;100.00;102136.66;3725294;37;21325;-62
2022/02/14 05:28:47;;;;;;;;;59.75;48.75;;;;;-3.30;100.00;102142.81;3725079;38;21335;-62
2022/02/14 05:31:16;;;;;;;;;35.75;32.50;;;;;-3.26;100.00;102149.72;3725093;37;21393;-60
2022/02/14 05:33:43;;;;;;;;;34.75;34.25;;;;;-3.18;100.00;102147.66;3724905;38;21343;-62
2022/02/14 05:36:10;;;;;;;;;23.25;23.25;;;;;-3.18;100.00;102138.84;3725179;38;21399;-62
2022/02/14 05:38:38;;;;;;;;;29.50;26.00;;;;;-3.11;100.00;102149.13;3725237;37;21190;-64
2022/02/14 05:41:06;;;;;;;;;33.75;27.00;;;;;-3.06;100.00;102155.09;3725115;38;21303;-63
2022/02/14 05:43:34;;;;;;;;;32.00;29.50;;;;;-2.98;100.00;102159.25;3725100;37;21300;-63
2022/02/14 05:46:02;;;;;;;;;27.25;26.25;;;;;-3.02;100.00;102137.31;3724883;37;21311;-63
2022/02/14 05:48:29;;;;;;;;;33.75;30.25;;;;;-2.86;100.00;102161.44;3725082;38;21199;-64
2022/02/14 05:50:57;;;;;;;;;27.25;25.75;;;;;-2.85;100.00;102164.03;3725080;37;21287;-63
2022/02/14 05:53:24;;;;;;;;;28.75;26.00;;;;;-2.86;100.00;102162.31;3725208;38;21289;-62
2022/02/14 05:55:53;;;;;;;;;25.75;22.50;;;;;-2.82;100.00;102161.28;3724946;37;21282;-62
2022/02/14 05:58:20;;;;;;;;;25.25;25.25;;;;;-2.75;100.00;102176.00;3725391;37;21271;-61
2022/02/14 06:00:55;;;;;;;;;23.75;21.25;;;;;-2.78;100.00;102160.22;3725155;38;21263;-61
2022/02/14 06:03:23;;;;;;;;;36.25;32.00;;;;;-2.68;100.00;102169.56;3725193;38;21252;-61
2022/02/14 06:05:51;;;;;;;;;26.75;23.75;;;;;-2.76;100.00;102150.44;3725041;38;21259;-61
2022/02/14 06:08:19;;;;;;;;;24.00;21.75;;;;;-2.61;100.00;102159.59;3725208;38;21267;-62
2022/02/14 06:10:47;;;;;;;;;22.75;22.00;;;;;-2.46;100.00;102168.69;3725160;38;21190;-63
2022/02/14 06:13:15;;;;;;;;;19.25;18.25;;;;;-2.39;100.00;102179.00;3724965;38;21263;-61
2022/02/14 06:15:43;;;;;;;;;23.25;20.50;;;;;-2.34;100.00;102179.69;3725008;37;21235;-59
2022/02/14 06:18:12;;;;;;;;;28.25;24.75;;;;;-2.26;100.00;102182.03;3724861;37;21413;-61
2022/02/14 06:20:39;;;;;;;;;28.00;27.75;;;;;-2.22;100.00;102180.97;3724746;37;21249;-60
2022/02/14 06:23:06;;;;;;;;;35.00;34.25;;;;;-2.27;100.00;102169.69;3725234;38;21256;-62
2022/02/14 06:25:37;;;;;;;;;40.00;37.00;;;;;-2.21;100.00;102180.03;3725131;37;21383;-62
2022/02/14 06:28:05;;;;;;;;;35.25;31.75;;;;;-2.37;100.00;102147.97;3724810;38;21213;-62
2022/02/14 06:30:32;;;;;;;;;42.75;39.25;;;;;-2.15;100.00;102179.81;3725160;38;21247;-64
2022/02/14 06:33:01;;;;;;;;;43.75;33.00;;;;;-2.07;100.00;102166.19;3725133;37;21267;-63
2022/02/14 06:35:29;;;;;;;;;42.00;37.25;;;;;-1.94;100.00;102175.38;3724913;38;21275;-63
2022/02/14 06:37:58;;;;;;;;;43.75;37.50;;;;;-1.86;100.00;102175.91;3725117;37;21298;-61
2022/02/14 06:40:31;;;;;;;;;38.25;35.75;;;;;-1.68;100.00;102169.84;3725293;38;21296;-64
2022/02/14 06:42:59;;;;;;;;;30.00;29.00;;;;;-1.52;100.00;102171.81;3725091;37;21202;-63
2022/02/14 06:45:27;;;;;;;;;33.50;27.50;;;;;-1.35;100.00;102175.44;3725165;37;21220;-60
2022/02/14 06:47:55;;;;;;;;;34.75;32.25;;;;;-1.28;100.00;102157.44;3725149;38;21430;-62
2022/02/14 06:50:22;;;;;;;;;31.00;24.75;;;;;-1.10;100.00;102175.22;3725417;37;21161;-64
2022/02/14 06:52:51;;;;;;;;;27.00;24.25;;;;;-0.98;100.00;102167.59;3725287;38;21237;-64
2022/02/14 06:55:19;;;;;;;;;28.50;27.25;;;;;-0.89;100.00;102175.16;3725112;38;21198;-63
2022/02/14 06:57:47;;;;;;;;;32.50;29.25;;;;;-0.78;100.00;102167.56;3724916;37;21216;-64
2022/02/14 07:00:18;;;;;;;;;39.00;35.50;;;;;-0.71;100.00;102159.22;3725346;38;21203;-61
2022/02/14 07:02:48;;;;;;;;;23.50;22.75;;;;;-0.57;100.00;102169.22;3725324;37;21096;-63
2022/02/14 07:05:17;;;;;;;;;29.50;29.50;;;;;-0.48;100.00;102173.19;3726434;37;21229;-63
2022/02/14 07:07:48;;;;;;;;;29.25;27.00;;;;;-0.34;100.00;102168.09;3726239;37;21180;-63
2022/02/14 07:10:16;;;;;;;;;27.75;24.25;;;;;-0.40;100.00;102155.94;3730198;37;21191;-62
2022/02/14 07:12:44;;;;;;;;;23.75;23.50;;;;;-0.19;100.00;102171.81;3732799;37;21083;-61
2022/02/14 07:15:15;;;;;;;;;25.50;25.00;;;;;-0.18;100.00;102162.88;3726320;38;21159;-62
2022/02/14 07:17:45;;;;;;;;;30.50;24.00;;;;;-0.14;100.00;102170.62;3725236;37;21079;-62
2022/02/14 07:20:13;;;;;;;;;37.75;33.25;;;;;-0.15;100.00;102171.56;3725227;37;21169;-62
2022/02/14 07:22:43;;;;;;;;;34.50;28.75;;;;;-0.09;100.00;102173.94;3725183;38;21322;-61
2022/02/14 07:25:12;;;;;;;;;31.25;26.25;;;;;-0.17;100.00;102152.16;3724929;38;21132;-60
2022/02/14 07:27:41;;;;;;;;;27.50;27.00;;;;;0.07;100.00;102168.69;3725178;37;21037;-61
2022/02/14 07:30:10;;;;;;;;;26.75;24.50;;;;;0.16;100.00;102173.56;3724935;38;21047;-61
2022/02/14 07:32:39;;;;;;;;;23.00;20.00;;;;;0.30;100.00;102173.72;3724756;37;21055;-62
2022/02/14 07:35:09;;;;;;;;;29.00;27.25;;;;;0.42;100.00;102172.25;3725109;38;21283;-63
2022/02/14 07:37:38;;;;;;;;;28.00;27.50;;;;;0.44;100.00;102172.16;3724938;38;21240;-63
2022/02/14 07:40:08;;;;;;;;;26.00;24.00;;;;;0.43;100.00;102175.75;3725340;38;21157;-62
2022/02/14 07:42:36;;;;;;;;;21.00;21.00;;;;;0.41;100.00;102167.00;3725396;37;21216;-61
2022/02/14 07:45:07;;;;;;;;;30.25;28.25;;;;;0.49;100.00;102176.31;3725620;38;21125;-63
2022/02/14 07:47:35;;;;;;;;;27.00;26.25;;;;;0.51;100.00;102168.25;3725689;37;21140;-60
2022/02/14 07:50:03;;;;;;;;;26.25;24.75;;;;;0.66;100.00;102178.06;3725296;37;21187;-63
2022/02/14 07:52:32;;;;;;;;;24.00;22.25;;;;;0.71;100.00;102162.69;3725226;38;21074;-67
2022/02/14 07:55:03;;;;;;;;;32.50;27.75;;;;;0.76;100.00;102166.00;3725174;38;21098;-62
2022/02/14 07:57:32;;;;;;;;;37.00;33.50;;;;;0.86;100.00;102171.69;3724781;37;21058;-62
2022/02/14 08:00:07;;;;;;;;;22.00;21.00;;;;;0.91;100.00;102165.19;3724845;37;21158;-62
2022/02/14 08:02:42;;;;;;;;;31.25;28.00;;;;;1.03;100.00;102171.66;3724529;37;21028;-61
2022/02/14 08:05:11;;;;;;;;;20.50;19.25;;;;;1.11;100.00;102160.53;3724426;37;21098;-61
2022/02/14 08:07:38;;;;;;;;;24.50;23.75;;;;;1.22;100.00;102155.50;3724456;37;21088;-65
2022/02/14 08:10:06;;;;;;;;;24.75;23.25;;;;;1.37;100.00;102151.97;3724596;38;21218;-63
2022/02/14 08:12:34;;;;;;;;;20.75;20.25;;;;;1.51;100.00;102152.06;3724431;37;21075;-64
2022/02/14 08:15:06;;;;;;;;;26.25;22.00;;;;;1.59;100.00;102136.47;3724428;37;21244;-64
2022/02/14 08:17:36;;;;;;;;;29.50;28.00;;;;;1.74;100.00;102148.06;3724767;38;21042;-63
2022/02/14 08:20:04;;;;;;;;;33.25;29.25;;;;;1.82;100.00;102150.31;3725125;37;21126;-60
2022/02/14 08:22:36;;;;;;;;;34.25;31.75;;;;;1.87;100.00;102148.22;3725226;38;20977;-61
2022/02/14 08:25:05;;;;;;;;;24.75;23.75;;;;;1.85;100.00;102128.78;3724962;37;21152;-61
2022/02/14 08:27:32;;;;;;;;;21.75;20.50;;;;;2.02;100.00;102136.66;3725291;37;20976;-61
2022/02/14 08:30:01;;;;;;;;;20.75;18.75;;;;;2.14;100.00;102137.72;3725308;38;21097;-61
2022/02/14 08:32:29;;;;;;;;;16.25;15.00;;;;;2.25;100.00;102132.63;3725088;37;21047;-59
2022/02/14 08:34:56;;;;;;;;;17.50;17.00;;;;;2.37;100.00;102142.56;3725099;37;21257;-60
2022/02/14 08:37:24;;;;;;;;;16.25;15.00;;;;;2.32;100.00;102121.47;3725150;37;20972;-61
2022/02/14 08:39:51;;;;;;;;;21.00;19.25;;;;;2.45;100.00;102134.94;3725086;38;21223;-61
2022/02/14 08:42:19;;;;;;;;;17.25;16.50;;;;;2.59;100.00;102136.78;3725173;37;21069;-60
2022/02/14 08:44:47;;;;;;;;;27.75;27.50;;;;;2.64;100.00;102138.19;3725167;38;21070;-61
2022/02/14 08:47:15;;;;;;;;;17.50;17.25;;;;;2.75;100.00;102126.84;3725221;37;21124;-62
2022/02/14 08:49:42;;;;;;;;;15.00;14.50;;;;;2.82;100.00;102125.53;3725411;37;21076;-61
2022/02/14 08:52:11;;;;;;;;;14.00;14.00;;;;;2.79;100.00;102098.13;3725136;38;20992;-61
2022/02/14 08:54:39;;;;;;;;;26.50;25.00;;;;;3.10;100.00;102121.97;3724588;37;20933;-60
2022/02/14 08:57:08;;;;;;;;;15.50;13.25;;;;;3.14;100.00;102123.47;3725180;37;21046;-61
2022/02/14 08:59:38;;;;;;;;;14.50;14.50;;;;;3.16;100.00;102118.03;3725025;38;21111;-61
2022/02/14 09:02:06;;;;;;;;;20.25;16.75;;;;;3.25;100.00;102106.75;3725234;37;21043;-61
2022/02/14 09:04:34;;;;;;;;;16.00;15.50;;;;;3.33;100.00;102118.69;3725131;38;21103;-63
2022/02/14 09:07:04;;;;;;;;;12.00;11.00;;;;;3.29;100.00;102109.13;3725009;38;21176;-60
2022/02/14 09:09:32;;;;;;;;;10.00;9.00;;;;;3.38;100.00;102107.69;3725097;37;21225;-61
2022/02/14 09:12:02;;;;;;;;;10.25;10.25;;;;;3.42;100.00;102101.16;3725308;38;21168;-62
2022/02/14 09:14:33;;;;;;;;;14.50;13.25;;;;;3.57;100.00;102110.88;3725453;37;20843;-61
2022/02/14 09:17:00;;;;;;;;;13.00;13.00;;;;;3.54;100.00;102111.06;3725264;38;21038;-61
2022/02/14 09:19:29;;;;;;;;;10.75;10.00;;;;;3.62;100.00;102105.22;3725557;38;20915;-61
2022/02/14 09:21:57;;;;;;;;;14.00;13.75;;;;;3.74;100.00;102100.84;3725376;37;21187;-61
2022/02/14 09:24:25;;;;;;;;;17.75;16.00;;;;;3.87;100.00;102099.06;3725420;38;20898;-62
2022/02/14 09:26:52;;;;;;;;;11.25;9.75;;;;;3.97;100.00;102094.81;3726757;38;20981;-59
2022/02/14 09:29:22;;;;;;;;;18.25;14.50;;;;;4.02;100.00;102083.81;3727942;37;21021;-61
2022/02/14 09:31:53;;;;;;;;;14.25;10.75;;;;;4.01;100.00;102082.94;3726908;37;21004;-61
2022/02/14 09:34:21;;;;;;;;;12.50;12.00;;;;;3.97;100.00;102081.44;3725755;37;21017;-60
2022/02/14 09:36:54;;;;;;;;;8.75;8.75;;;;;3.99;100.00;102087.53;3725336;38;20996;-61
2022/02/14 09:39:22;;;;;;;;;13.00;11.50;;;;;4.04;100.00;102076.53;3726231;38;20932;-59
2022/02/14 09:41:50;;;;;;;;;10.00;9.75;;;;;3.99;100.00;102079.50;3725579;37;20962;-60
2022/02/14 09:44:18;;;;;;;;;10.50;10.50;;;;;4.06;100.00;102086.16;3725404;38;21064;-60
2022/02/14 09:46:48;;;;;;;;;15.00;13.00;;;;;4.09;100.00;102083.28;3724801;38;20880;-60
2022/02/14 09:49:24;;;;;;;;;14.75;13.25;;;;;3.86;100.00;102063.41;3725236;37;21103;-61
2022/02/14 09:52:02;;;;;;;;;12.00;10.75;;;;;3.93;100.00;102064.72;3725270;37;21017;-59
2022/02/14 09:54:32;;;;;;;;;11.00;11.00;;;;;3.98;100.00;102051.00;3725285;38;21141;-62
2022/02/14 09:57:00;;;;;;;;;14.75;13.25;;;;;4.21;100.00;102057.44;3724807;38;20903;-61
2022/02/14 09:59:28;;;;;;;;;13.50;11.00;;;;;4.39;100.00;102050.81;3725971;38;21087;-60
2022/02/14 10:01:56;;;;;;;;;11.00;11.00;;;;;4.44;100.00;102045.97;3724784;37;20926;-60
2022/02/14 10:04:23;;;;;;;;;20.50;18.00;;;;;4.48;100.00;102047.47;3725289;37;20960;-61
2022/02/14 10:06:51;;;;;;;;;15.50;13.25;;;;;4.53;100.00;102045.34;3725155;37;20893;-61
2022/02/14 10:09:22;;;;;;;;;8.25;8.25;;;;;4.59;100.00;102041.38;3725199;38;20971;-60
2022/02/14 10:12:16;;;;;;;;;11.25;10.75;;;;;4.65;100.00;102031.06;3724880;38;20992;-60
2022/02/14 10:14:44;;;;;;;;;8.25;8.00;;;;;4.77;100.00;102037.34;3725221;38;21088;-61
2022/02/14 10:17:22;;;;;;;;;10.25;9.00;;;;;4.82;100.00;102020.94;3725190;37;20881;-61
2022/02/14 10:20:00;;;;;;;;;15.50;14.50;;;;;4.89;100.00;102017.69;3724854;37;20867;-60
2022/02/14 10:22:28;;;;;;;;;11.75;10.25;;;;;4.92;100.00;102013.94;3725023;37;20849;-61
2022/02/14 10:24:56;;;;;;;;;9.00;7.50;;;;;5.02;100.00;102006.06;3725167;37;21112;-61
2022/02/14 10:27:33;;;;;;;;;8.50;8.00;;;;;5.12;100.00;101999.06;3725285;38;20998;-61
2022/02/14 10:30:11;;;;;;;;;12.50;12.50;;;;;5.18;100.00;101993.25;3724657;38;20797;-61
2022/02/14 10:32:52;;;;;;;;;15.25;15.25;;;;;5.24;100.00;102000.81;3724972;37;20829;-61
2022/02/14 10:35:24;;;;;;;;;13.75;13.50;;;;;5.10;100.00;101988.44;3724970;38;20889;-60
2022/02/14 10:38:03;;;;;;;;;15.50;14.75;;;;;5.23;100.00;101983.00;3725368;37;20913;-61
2022/02/14 10:40:35;;;;;;;;;29.25;24.50;;;;;5.33;100.00;101981.34;3725216;38;20916;-61
2022/02/14 10:43:03;;;;;;;;;20.25;19.75;;;;;5.41;100.00;101975.41;3724912;38;20838;-61
2022/02/14 10:45:34;;;;;;;;;12.00;12.00;;;;;5.49;100.00;101978.38;3724756;38;21035;-61
2022/02/14 10:48:04;;;;;;;;;13.25;11.50;;;;;5.41;100.00;101975.41;3724903;37;20828;-60
2022/02/14 10:50:32;;;;;;;;;14.50;12.00;;;;;5.46;99.90;101971.41;3725239;37;20784;-62
2022/02/14 10:53:03;;;;;;;;;15.50;13.75;;;;;5.31;99.37;101943.88;3725067;38;20774;-63
2022/02/14 10:55:37;;;;;;;;;12.00;11.50;;;;;5.50;98.26;101958.59;3725012;38;20793;-61
2022/02/14 10:58:05;;;;;;;;;16.75;13.50;;;;;5.64;97.52;101958.41;3725039;37;20866;-60
2022/02/14 11:00:34;;;;;;;;;9.75;9.50;;;;;5.66;94.44;101951.09;3724969;38;20881;-60
2022/02/14 11:03:06;;;;;;;;;13.00;11.25;;;;;5.51;94.58;101958.47;3725188;37;20862;-62
2022/02/14 11:05:35;;;;;;;;;11.25;11.00;;;;;5.61;93.91;101945.22;3725342;37;20884;-60
2022/02/14 11:08:04;;;;;;;;;14.50;14.50;;;;;5.68;nan;101950.97;3725623;37;20855;-63
2022/02/14 11:10:32;;;;;;;;;16.50;14.00;;;;;5.73;91.89;101933.50;3725141;37;21043;-60
2022/02/14 11:13:01;;;;;;;;;15.25;12.75;;;;;5.70;91.18;101941.81;3724837;37;20927;-61